createdAt,value
2017-08-02T00:00:25.566Z,15.20
2017-08-02T00:02:52.776Z,12.60
2017-08-02T00:05:20.012Z,14.23
2017-08-02T00:07:47.220Z,13.47
2017-08-02T00:10:15.365Z,14.90
2017-08-02T00:12:42.578Z,13.27
2017-08-02T00:15:09.784Z,13.80
2017-08-02T00:17:38.958Z,15.50
2017-08-02T00:20:06.164Z,16.97
2017-08-02T00:22:33.371Z,16.83
2017-08-02T00:25:00.600Z,19.10
2017-08-02T00:27:27.813Z,18.80
2017-08-02T00:29:55.036Z,14.53
2017-08-02T00:32:22.263Z,15.30
2017-08-02T00:34:49.475Z,15.00
2017-08-02T00:37:16.682Z,15.03
2017-08-02T00:39:43.889Z,17.17
2017-08-02T00:42:11.124Z,17.23
2017-08-02T00:44:38.332Z,19.17
2017-08-02T00:47:06.482Z,16.83
2017-08-02T00:49:33.697Z,14.80
2017-08-02T00:52:01.872Z,15.63
2017-08-02T00:54:29.117Z,17.90
2017-08-02T00:56:56.338Z,17.27
2017-08-02T00:59:23.560Z,15.80
2017-08-02T01:01:50.774Z,16.20
2017-08-02T01:04:17.993Z,16.20
2017-08-02T01:06:47.185Z,16.37
2017-08-02T01:09:14.396Z,15.00
2017-08-02T01:11:41.600Z,14.03
2017-08-02T01:14:08.808Z,15.00
2017-08-02T01:22:08.202Z,13.40
2017-08-02T01:24:35.410Z,13.37
2017-08-02T01:27:02.618Z,14.00
2017-08-02T01:29:30.761Z,14.10
2017-08-02T01:31:57.972Z,14.43
2017-08-02T01:34:25.202Z,14.73
2017-08-02T01:36:52.418Z,14.83
2017-08-02T01:39:19.629Z,15.80
2017-08-02T01:41:46.849Z,16.33
2017-08-02T01:44:14.056Z,16.70
2017-08-02T01:46:41.292Z,14.77
2017-08-02T01:49:09.489Z,13.63
2017-08-02T01:51:36.696Z,13.93
2017-08-02T01:54:03.902Z,15.07
2017-08-02T01:56:32.053Z,14.93
2017-08-02T01:58:59.287Z,13.77
2017-08-02T02:01:26.510Z,13.67
2017-08-02T02:03:53.716Z,13.80
2017-08-02T02:06:20.929Z,12.53
2017-08-02T02:08:48.145Z,14.03
2017-08-02T02:11:15.368Z,13.30
2017-08-02T02:13:42.586Z,14.03
2017-08-02T02:16:09.796Z,13.40
2017-08-02T02:18:37.004Z,12.60
2017-08-02T02:21:04.216Z,10.90
2017-08-02T02:23:31.449Z,12.20
2017-08-02T02:25:58.661Z,10.80
2017-08-02T02:28:25.870Z,12.10
2017-08-02T02:30:53.076Z,15.50
2017-08-02T02:33:21.240Z,14.43
2017-08-02T02:35:48.467Z,14.70
2017-08-02T02:38:15.685Z,16.33
2017-08-02T02:40:42.903Z,17.43
2017-08-02T02:43:10.136Z,19.93
2017-08-02T02:45:37.351Z,20.00
2017-08-02T02:48:05.500Z,22.10
2017-08-02T02:50:32.703Z,20.00
2017-08-02T02:52:59.905Z,17.87
2017-08-02T02:55:27.112Z,20.50
2017-08-02T02:57:54.317Z,17.03
2017-08-02T03:00:21.526Z,15.27
2017-08-02T03:02:48.737Z,15.50
2017-08-02T03:05:15.948Z,15.00
2017-08-02T03:07:43.163Z,16.93
2017-08-02T03:10:10.388Z,17.37
2017-08-02T03:12:37.593Z,13.80
2017-08-02T03:15:04.804Z,13.27
2017-08-02T03:17:32.013Z,11.03
2017-08-02T03:19:59.216Z,7.13
2017-08-02T03:22:26.436Z,6.93
2017-08-02T03:24:53.632Z,6.90
2017-08-02T03:27:20.832Z,7.80
2017-08-02T03:29:48.032Z,6.97
2017-08-02T03:32:15.241Z,7.30
2017-08-02T03:34:42.478Z,8.37
2017-08-02T03:37:09.693Z,8.37
2017-08-02T03:39:36.893Z,8.13
2017-08-02T03:42:04.093Z,8.73
2017-08-02T03:44:31.302Z,8.07
2017-08-02T03:46:58.520Z,8.37
2017-08-02T03:49:25.724Z,9.20
2017-08-02T03:51:52.924Z,9.57
2017-08-02T03:54:20.122Z,9.23
2017-08-02T03:56:47.338Z,9.20
2017-08-02T03:59:14.578Z,11.33
2017-08-02T04:01:41.789Z,11.20
2017-08-02T04:04:09.009Z,12.53
2017-08-02T04:06:36.225Z,13.47
2017-08-02T04:09:03.244Z,13.00
2017-08-02T04:11:32.428Z,12.80
2017-08-02T04:13:59.629Z,12.73
2017-08-02T04:16:26.843Z,12.80
2017-08-02T04:18:54.064Z,12.80
2017-08-02T04:21:21.273Z,12.33
2017-08-02T04:23:48.510Z,13.43
2017-08-02T04:26:15.720Z,13.60
2017-08-02T04:28:42.925Z,14.40
2017-08-02T04:31:10.142Z,12.00
2017-08-02T04:33:37.355Z,13.07
2017-08-02T04:36:04.584Z,12.43
2017-08-02T04:38:31.787Z,12.70
2017-08-02T04:40:59.008Z,13.80
2017-08-02T04:43:27.154Z,14.23
2017-08-02T04:45:54.360Z,14.63
2017-08-02T04:48:21.586Z,14.80
2017-08-02T04:50:48.801Z,14.17
2017-08-02T04:53:16.004Z,13.30
2017-08-02T04:55:43.213Z,14.10
2017-08-02T04:58:10.420Z,13.70
2017-08-02T05:00:37.658Z,12.60
2017-08-02T05:03:04.874Z,11.70
2017-08-02T05:05:33.036Z,11.23
2017-08-02T05:08:00.255Z,10.63
2017-08-02T05:10:27.472Z,10.50
2017-08-02T05:12:54.704Z,11.17
2017-08-02T05:15:21.913Z,11.70
2017-08-02T05:17:49.120Z,10.37
2017-08-02T05:20:16.338Z,10.23
2017-08-02T05:22:43.548Z,11.00
2017-08-02T05:25:10.776Z,10.70
2017-08-02T05:27:37.986Z,10.90
2017-08-02T05:30:05.206Z,10.53
2017-08-02T05:32:32.416Z,10.10
2017-08-02T05:34:59.617Z,8.93
2017-08-02T05:37:28.777Z,7.97
2017-08-02T05:39:55.988Z,8.40
2017-08-02T05:42:23.201Z,7.27
2017-08-02T05:44:50.409Z,6.67
2017-08-02T05:47:18.536Z,5.87
2017-08-02T05:49:45.756Z,5.90
2017-08-02T05:52:12.961Z,7.07
2017-08-02T05:54:40.164Z,7.40
2017-08-02T05:57:07.364Z,6.20
2017-08-02T05:59:34.581Z,6.30
2017-08-02T06:02:01.804Z,6.37
2017-08-02T06:04:28.996Z,5.73
2017-08-02T06:06:56.190Z,7.10
2017-08-02T06:09:23.395Z,6.67
2017-08-02T06:11:50.601Z,7.10
2017-08-02T06:14:17.832Z,6.60
2017-08-02T06:16:44.865Z,7.20
2017-08-02T06:19:12.073Z,6.37
2017-08-02T06:21:39.081Z,6.93
2017-08-02T06:24:06.101Z,6.60
2017-08-02T06:26:33.335Z,7.70
2017-08-02T06:29:00.533Z,6.83
2017-08-02T06:31:27.734Z,7.17
2017-08-02T06:33:54.956Z,6.60
2017-08-02T06:36:22.164Z,7.13
2017-08-02T06:38:49.397Z,7.00
2017-08-02T06:41:16.598Z,6.70
2017-08-02T06:43:43.803Z,7.20
2017-08-02T06:46:11.004Z,7.27
2017-08-02T06:48:39.146Z,7.60
2017-08-02T06:51:06.385Z,7.50
2017-08-02T06:53:33.601Z,6.43
2017-08-02T06:56:00.813Z,5.47
2017-08-02T06:58:28.028Z,6.63
2017-08-02T07:00:55.258Z,5.70
2017-08-02T07:03:22.484Z,5.80
2017-08-02T07:05:49.689Z,6.47
2017-08-02T07:08:16.892Z,5.70
2017-08-02T07:10:44.102Z,5.00
2017-08-02T07:13:11.304Z,6.20
2017-08-02T07:15:38.537Z,5.20
2017-08-02T07:18:05.744Z,5.03
2017-08-02T07:20:32.958Z,5.13
2017-08-02T07:23:00.165Z,5.40
2017-08-02T07:25:27.364Z,4.97
2017-08-02T07:27:54.584Z,5.07
2017-08-02T07:30:21.784Z,5.30
2017-08-02T07:32:48.989Z,5.37
2017-08-02T07:35:16.201Z,6.10
2017-08-02T07:37:43.401Z,5.53
2017-08-02T07:40:12.548Z,4.90
2017-08-02T07:42:39.753Z,6.07
2017-08-02T07:45:07.902Z,5.07
2017-08-02T07:47:35.110Z,5.57
2017-08-02T07:50:02.321Z,4.97
2017-08-02T07:52:29.549Z,5.23
2017-08-02T07:54:57.696Z,4.80
2017-08-02T07:57:24.902Z,5.13
2017-08-02T07:59:52.101Z,4.77
2017-08-02T08:02:19.305Z,5.20
2017-08-02T08:04:46.536Z,4.83
2017-08-02T08:07:13.749Z,5.40
2017-08-02T08:09:40.952Z,4.70
2017-08-02T08:12:08.152Z,5.07
2017-08-02T08:14:35.353Z,4.53
2017-08-02T08:17:02.576Z,4.83
2017-08-02T08:19:29.780Z,4.47
2017-08-02T08:21:56.993Z,4.80
2017-08-02T08:24:25.140Z,5.43
2017-08-02T08:26:52.345Z,5.13
2017-08-02T08:29:19.568Z,4.40
2017-08-02T08:31:46.772Z,4.37
2017-08-02T08:34:13.968Z,5.00
2017-08-02T08:36:41.175Z,4.27
2017-08-02T08:39:08.188Z,4.20
2017-08-02T08:41:35.404Z,3.97
2017-08-02T08:44:02.601Z,4.23
2017-08-02T08:46:30.760Z,4.37
2017-08-02T08:48:57.965Z,4.00
2017-08-02T08:51:25.167Z,3.80
2017-08-02T08:53:52.393Z,3.80
2017-08-02T08:56:19.604Z,4.00
2017-08-02T08:58:46.805Z,4.37
2017-08-02T09:01:14.004Z,4.70
2017-08-02T09:03:41.209Z,4.33
2017-08-02T09:06:08.765Z,4.03
2017-08-02T09:08:35.965Z,4.20
2017-08-02T09:11:03.168Z,4.20
2017-08-02T09:13:30.368Z,4.30
2017-08-02T09:15:57.577Z,4.20
2017-08-02T09:18:24.804Z,4.43
2017-08-02T09:20:52.013Z,3.77
2017-08-02T09:23:19.213Z,4.20
2017-08-02T09:25:46.415Z,3.93
2017-08-02T09:28:13.620Z,4.63
2017-08-02T09:30:40.846Z,4.30
2017-08-02T09:33:08.048Z,4.27
2017-08-02T09:35:35.245Z,3.83
2017-08-02T09:38:02.465Z,4.20
2017-08-02T09:40:29.663Z,4.30
2017-08-02T09:42:56.860Z,5.00
2017-08-02T09:45:24.061Z,4.70
2017-08-02T09:47:51.265Z,4.80
2017-08-02T09:50:18.474Z,4.97
2017-08-02T09:52:45.680Z,4.63
2017-08-02T09:55:13.827Z,4.90
2017-08-02T09:57:41.038Z,4.47
2017-08-02T10:00:08.249Z,4.57
2017-08-02T10:02:35.460Z,4.03
2017-08-02T10:05:03.895Z,4.70
2017-08-02T10:07:31.105Z,4.50
2017-08-02T10:09:58.324Z,4.03
2017-08-02T10:12:25.533Z,4.07
2017-08-02T10:14:52.744Z,4.40
2017-08-02T10:17:19.969Z,5.10
2017-08-02T10:19:47.180Z,5.50
2017-08-02T10:22:14.380Z,4.87
2017-08-02T10:24:42.528Z,4.00
2017-08-02T10:27:09.732Z,4.37
2017-08-02T10:29:36.957Z,4.57
2017-08-02T10:32:05.106Z,4.97
2017-08-02T10:34:32.305Z,4.03
2017-08-02T10:36:59.520Z,4.33
2017-08-02T10:39:26.741Z,4.97
2017-08-02T10:41:53.965Z,4.50
2017-08-02T10:44:22.120Z,4.90
2017-08-02T10:46:49.316Z,5.30
2017-08-02T10:49:18.472Z,5.07
2017-08-02T10:51:45.681Z,5.50
2017-08-02T10:54:14.859Z,4.90
2017-08-02T10:56:42.078Z,5.17
2017-08-02T10:59:09.285Z,5.13
2017-08-02T11:01:36.489Z,7.40
2017-08-02T11:04:03.691Z,4.83
2017-08-02T11:06:30.917Z,5.10
2017-08-02T11:08:59.061Z,5.13
2017-08-02T11:11:26.272Z,5.83
2017-08-02T11:13:53.479Z,6.00
2017-08-02T11:16:20.688Z,5.90
2017-08-02T11:18:47.920Z,5.77
2017-08-02T11:21:15.133Z,5.40
2017-08-02T11:23:42.340Z,6.20
2017-08-02T11:26:09.554Z,5.10
2017-08-02T11:28:36.760Z,6.70
2017-08-02T11:31:03.981Z,7.23
2017-08-02T11:33:31.187Z,4.87
2017-08-02T11:35:58.398Z,5.10
2017-08-02T11:38:25.618Z,6.30
2017-08-02T11:40:52.828Z,5.90
2017-08-02T11:43:20.057Z,5.33
2017-08-02T11:45:47.265Z,5.77
2017-08-02T11:48:14.469Z,5.97
2017-08-02T11:50:42.630Z,5.40
2017-08-02T11:53:09.841Z,5.70
2017-08-02T11:55:37.069Z,5.80
2017-08-02T11:58:05.210Z,5.80
2017-08-02T12:00:32.424Z,5.63
2017-08-02T12:02:59.624Z,5.63
2017-08-02T12:05:26.834Z,5.37
2017-08-02T12:07:54.060Z,5.40
2017-08-02T12:10:21.260Z,5.90
2017-08-02T12:12:49.443Z,6.30
2017-08-02T12:15:16.650Z,6.13
2017-08-02T12:17:43.865Z,5.80
2017-08-02T12:20:13.049Z,5.67
2017-08-02T12:22:40.261Z,5.30
2017-08-02T12:25:07.477Z,6.10
2017-08-02T12:27:35.625Z,6.07
2017-08-02T12:30:02.836Z,5.77
2017-08-02T12:32:30.069Z,6.50
2017-08-02T12:34:57.277Z,5.90
2017-08-02T12:37:24.497Z,5.57
2017-08-02T12:39:52.678Z,5.93
2017-08-02T12:42:19.884Z,5.07
2017-08-02T12:44:47.113Z,5.07
2017-08-02T12:47:15.250Z,5.33
2017-08-02T12:49:42.465Z,4.93
2017-08-02T12:52:09.666Z,5.20
2017-08-02T12:54:36.868Z,4.20
2017-08-02T12:57:04.073Z,4.90
2017-08-02T12:59:31.289Z,5.47
2017-08-02T13:01:58.545Z,5.50
2017-08-02T13:04:25.758Z,6.17
2017-08-02T13:06:52.969Z,5.50
2017-08-02T13:09:20.182Z,4.90
2017-08-02T13:11:47.398Z,5.23
2017-08-02T13:14:16.572Z,4.93
2017-08-02T13:16:43.768Z,5.03
2017-08-02T13:19:10.977Z,5.10
2017-08-02T13:21:38.185Z,4.53
2017-08-02T13:24:05.394Z,4.63
2017-08-02T13:26:32.620Z,5.37
2017-08-02T13:28:59.827Z,4.10
2017-08-02T13:31:27.030Z,4.80
2017-08-02T13:33:54.242Z,4.10
2017-08-02T13:36:21.452Z,4.77
2017-08-02T13:38:48.680Z,4.57
2017-08-02T13:41:15.887Z,4.40
2017-08-02T13:43:43.090Z,3.63
2017-08-02T13:46:10.301Z,4.80
2017-08-02T13:48:37.504Z,4.43
2017-08-02T13:51:04.728Z,4.43
2017-08-02T13:53:32.888Z,4.20
2017-08-02T13:56:00.093Z,4.40
2017-08-02T13:58:27.301Z,4.23
2017-08-02T14:00:55.505Z,4.20
2017-08-02T14:03:22.729Z,3.67
2017-08-02T14:05:50.876Z,3.40
2017-08-02T14:08:18.081Z,4.20
2017-08-02T14:10:45.292Z,4.40
2017-08-02T14:13:12.500Z,4.90
2017-08-02T14:15:39.729Z,4.33
2017-08-02T14:20:53.128Z,4.47
2017-08-02T14:23:20.333Z,4.23
2017-08-02T14:25:47.533Z,3.70
2017-08-02T14:28:14.744Z,4.13
2017-08-02T14:30:41.951Z,4.70
2017-08-02T14:33:09.186Z,4.30
2017-08-02T14:35:36.397Z,4.97
2017-08-02T14:38:03.604Z,4.00
2017-08-02T14:40:32.308Z,4.10
2017-08-02T14:42:59.508Z,4.13
2017-08-02T14:45:28.684Z,4.13
2017-08-02T14:47:55.889Z,4.00
2017-08-02T14:50:23.101Z,3.90
2017-08-02T14:52:52.313Z,4.50
2017-08-02T14:55:19.524Z,4.10
2017-08-02T14:57:46.728Z,3.60
2017-08-02T15:00:13.937Z,5.07
2017-08-02T15:02:42.084Z,3.63
2017-08-02T15:05:09.285Z,3.87
2017-08-02T15:07:36.498Z,4.80
2017-08-02T15:10:03.710Z,4.57
2017-08-02T15:12:30.940Z,3.60
2017-08-02T15:14:58.140Z,3.70
2017-08-02T15:17:25.348Z,3.90
2017-08-02T15:19:53.333Z,4.20
2017-08-02T15:22:20.542Z,4.37
2017-08-02T15:24:47.773Z,4.33
2017-08-02T15:27:14.976Z,4.17
2017-08-02T15:29:42.185Z,3.80
2017-08-02T15:32:09.390Z,3.73
2017-08-02T15:34:36.598Z,3.93
2017-08-02T15:37:03.826Z,3.43
2017-08-02T15:39:31.027Z,4.40
2017-08-02T15:41:58.242Z,4.03
2017-08-02T15:44:25.444Z,3.87
2017-08-02T15:46:52.654Z,4.20
2017-08-02T15:49:19.876Z,3.70
2017-08-02T15:51:47.086Z,4.13
2017-08-02T15:54:14.292Z,3.83
2017-08-02T15:56:41.505Z,3.97
2017-08-02T15:59:08.761Z,4.00
2017-08-02T16:01:37.924Z,5.17
2017-08-02T16:04:05.139Z,3.60
2017-08-02T16:06:32.351Z,4.83
2017-08-02T16:08:59.558Z,4.83
2017-08-02T16:11:26.768Z,4.63
2017-08-02T16:13:54.006Z,3.63
2017-08-02T16:16:21.213Z,3.77
2017-08-02T16:18:48.418Z,3.77
2017-08-02T16:21:15.617Z,3.80
2017-08-02T16:23:42.832Z,4.50
2017-08-02T16:26:10.056Z,4.40
2017-08-02T16:28:37.265Z,4.70
2017-08-02T16:31:04.712Z,4.90
2017-08-02T16:33:32.852Z,4.20
2017-08-02T16:36:00.505Z,4.50
2017-08-02T16:38:27.728Z,4.93
2017-08-02T16:40:54.944Z,4.80
2017-08-02T16:43:23.101Z,4.20
2017-08-02T16:45:50.304Z,4.33
2017-08-02T16:48:17.521Z,5.00
2017-08-02T16:50:44.746Z,4.67
2017-08-02T16:53:11.955Z,4.93
2017-08-02T16:55:39.172Z,4.70
2017-08-02T16:58:06.377Z,4.70
2017-08-02T17:00:33.584Z,5.03
2017-08-02T17:03:00.817Z,4.80
2017-08-02T17:05:28.029Z,4.60
2017-08-02T17:07:55.239Z,4.33
2017-08-02T17:10:22.452Z,4.90
2017-08-02T17:12:49.658Z,5.33
2017-08-02T17:15:16.886Z,5.50
2017-08-02T17:17:44.096Z,5.60
2017-08-02T17:20:20.432Z,5.13
2017-08-02T17:22:47.642Z,5.40
2017-08-02T17:25:14.849Z,5.43
2017-08-02T17:27:42.065Z,4.70
2017-08-02T17:30:09.272Z,5.50
2017-08-02T17:32:38.453Z,6.50
2017-08-02T17:35:05.666Z,5.93
2017-08-02T17:37:32.877Z,5.70
2017-08-02T17:40:00.089Z,5.70
2017-08-02T17:42:27.301Z,5.17
2017-08-02T17:44:54.524Z,5.93
2017-08-02T17:47:22.693Z,5.70
2017-08-02T17:49:49.908Z,6.53
2017-08-02T17:52:18.064Z,6.80
2017-08-02T17:54:45.277Z,7.00
2017-08-02T17:57:12.513Z,6.00
2017-08-02T17:59:39.732Z,6.40
2017-08-02T18:02:06.952Z,6.70
2017-08-02T18:04:34.157Z,6.87
2017-08-02T18:07:01.416Z,6.43
2017-08-02T18:09:28.800Z,6.17
2017-08-02T18:11:56.030Z,6.83
2017-08-02T18:14:23.297Z,7.77
2017-08-02T18:16:50.504Z,7.23
2017-08-02T18:19:18.680Z,7.33
2017-08-02T18:21:45.971Z,6.50
2017-08-02T18:24:13.246Z,7.67
2017-08-02T18:26:41.418Z,7.43
2017-08-02T18:29:08.693Z,7.73
2017-08-02T18:31:35.960Z,7.30
2017-08-02T18:34:05.170Z,7.70
2017-08-02T18:36:32.381Z,7.70
2017-08-02T18:39:01.384Z,7.50
2017-08-02T18:41:28.598Z,8.27
2017-08-02T18:43:55.875Z,7.73
2017-08-02T18:46:23.104Z,7.80
2017-08-02T18:48:50.319Z,7.67
2017-08-02T18:51:17.585Z,7.80
2017-08-02T18:53:45.732Z,8.20
2017-08-02T18:56:12.937Z,7.10
2017-08-02T18:58:41.220Z,8.23
2017-08-02T19:01:08.485Z,6.70
2017-08-02T19:03:35.713Z,7.87
2017-08-02T19:06:02.975Z,7.20
2017-08-02T19:08:30.190Z,7.90
2017-08-02T19:10:57.598Z,8.13
2017-08-02T19:13:24.885Z,7.43
2017-08-02T19:15:53.105Z,7.40
2017-08-02T19:18:21.337Z,8.40
2017-08-02T19:20:48.600Z,8.67
2017-08-02T19:23:15.840Z,8.87
2017-08-02T19:25:43.082Z,8.17
2017-08-02T19:28:10.365Z,10.40
2017-08-02T19:30:37.641Z,8.27
2017-08-02T19:33:04.860Z,8.97
2017-08-02T19:35:32.088Z,8.30
2017-08-02T19:38:00.317Z,8.77
2017-08-02T19:40:27.586Z,7.77
2017-08-02T19:42:54.835Z,8.00
2017-08-02T19:45:22.075Z,8.10
2017-08-02T19:47:49.369Z,7.83
2017-08-02T19:50:16.631Z,8.87
2017-08-02T19:52:43.911Z,9.50
2017-08-02T19:55:11.183Z,8.60
2017-08-02T19:57:38.396Z,9.40
2017-08-02T20:00:05.662Z,8.83
2017-08-02T20:02:32.877Z,9.50
2017-08-02T20:05:00.088Z,9.23
2017-08-02T20:07:28.293Z,9.17
2017-08-02T20:09:55.513Z,9.03
2017-08-02T20:12:24.703Z,9.10
2017-08-02T20:14:51.969Z,9.43
2017-08-02T20:17:19.266Z,9.30
2017-08-02T20:19:46.281Z,9.83
2017-08-02T20:22:13.480Z,9.50
2017-08-02T20:24:40.802Z,8.93
2017-08-02T20:27:08.019Z,8.43
2017-08-02T20:29:35.229Z,8.07
2017-08-02T20:32:03.376Z,10.30
2017-08-02T20:34:30.585Z,9.00
2017-08-02T20:36:57.874Z,9.00
2017-08-02T20:39:25.141Z,8.10
2017-08-02T20:41:52.399Z,8.57
2017-08-02T20:44:19.634Z,9.60
2017-08-02T20:46:46.847Z,8.60
2017-08-02T20:49:14.053Z,8.60
2017-08-02T20:51:41.308Z,9.60
2017-08-02T20:54:08.512Z,8.40
2017-08-02T20:56:35.717Z,9.00
2017-08-02T20:59:02.978Z,9.07
2017-08-02T21:01:30.182Z,8.60
2017-08-02T21:03:57.449Z,8.40
2017-08-02T21:06:24.707Z,8.63
2017-08-02T21:08:51.977Z,8.20
2017-08-02T21:11:19.232Z,8.40
2017-08-02T21:13:47.145Z,9.40
2017-08-02T21:16:14.345Z,9.27
2017-08-02T21:18:41.588Z,8.97
2017-08-02T21:21:08.844Z,8.97
2017-08-02T21:23:36.089Z,8.33
2017-08-02T21:26:03.364Z,9.33
2017-08-02T21:28:30.580Z,9.93
2017-08-02T21:30:57.784Z,9.40
2017-08-02T21:33:25.012Z,10.20
2017-08-02T21:35:54.161Z,8.90
2017-08-02T21:38:21.372Z,7.83
2017-08-02T21:40:48.582Z,9.03
2017-08-02T21:43:15.787Z,8.60
2017-08-02T21:45:43.009Z,8.90
2017-08-02T21:48:12.173Z,9.33
2017-08-02T21:50:39.387Z,9.57
2017-08-02T21:53:06.607Z,8.60
2017-08-02T21:55:33.816Z,10.37
2017-08-02T21:58:01.021Z,9.90
2017-08-02T22:00:28.269Z,10.07
2017-08-02T22:02:56.412Z,10.10
2017-08-02T22:05:23.615Z,9.80
2017-08-02T22:07:50.816Z,10.33
2017-08-02T22:10:18.025Z,10.67
2017-08-02T22:12:45.065Z,11.10
2017-08-02T22:15:12.276Z,11.50
2017-08-02T22:17:39.486Z,9.73
2017-08-02T22:20:06.694Z,10.60
2017-08-02T22:22:34.859Z,11.10
2017-08-02T22:25:02.090Z,11.13
2017-08-02T22:27:29.304Z,10.40
2017-08-02T22:29:57.444Z,11.30
2017-08-02T22:32:24.656Z,10.80
2017-08-02T22:34:51.861Z,10.73
2017-08-02T22:37:21.046Z,10.70
2017-08-02T22:39:48.252Z,10.87
2017-08-02T22:42:15.458Z,10.27
2017-08-02T22:44:42.669Z,9.80
2017-08-02T22:47:09.876Z,9.73
2017-08-02T22:49:37.104Z,9.87
2017-08-02T22:52:04.317Z,10.07
2017-08-02T22:54:32.467Z,9.30
2017-08-02T22:56:59.676Z,9.27
2017-08-02T22:59:26.897Z,10.47
2017-08-02T23:01:54.133Z,10.13
2017-08-02T23:04:21.339Z,9.93
2017-08-02T23:06:48.543Z,8.20
2017-08-02T23:09:15.744Z,8.90
2017-08-02T23:11:43.884Z,9.03
2017-08-02T23:14:11.105Z,9.33
2017-08-02T23:16:38.320Z,8.80
2017-08-02T23:19:05.533Z,8.70
2017-08-02T23:21:32.736Z,9.07
2017-08-02T23:23:59.943Z,8.17
2017-08-02T23:26:29.117Z,8.70
2017-08-02T23:28:56.318Z,8.53
2017-08-02T23:31:23.522Z,9.43
2017-08-02T23:33:50.719Z,8.70
2017-08-02T23:36:17.920Z,9.83
2017-08-02T23:38:45.147Z,8.80
2017-08-02T23:41:12.356Z,8.60
2017-08-02T23:43:39.561Z,7.57
2017-08-02T23:46:07.725Z,8.20
2017-08-02T23:48:34.929Z,8.53
2017-08-02T23:51:02.157Z,8.00
2017-08-02T23:53:29.374Z,8.33
2017-08-02T23:55:56.586Z,8.03
2017-08-02T23:58:23.789Z,7.87
